Au Sable, Michigan
Current Conditions -  °F | °C
As of 9:14 AM on Sunday 23 Nov 2014 (Local Time) from KOSC Reporting Station
Haze Haze  
Wind Chill: 40°   Ceiling: 1000
Heat Index: 45°   Visibility: 4mi
Dew Point: 44°   Wind: 9mph
Humidity: 99%   Direction: 180°S
Pressure: 29.82"   Gusts: NA
Location:  44.4539°N, 83.4813°W
Report Text: KOSC 231414Z AUTO 18008KT 4SM BR BKN010 OVC020 07/06 A2982 RMK AO2 T00700069
Loading
Personal Weather Stations






























Interactive Weather Map New forecast layout! Learn more

10-Day Weather Forecast

Advertisements
Track Severe Weather on mobile